Time;durP1;ratioP1;P1;durP2;ratioP2;P2;SDS_P1;SDS_P2;PMS_P1;PMS_P2;Temp;Humidity;BMP_temperature;BMP_pressure;BME280_temperature;BME280_humidity;BME280_pressure;Samples;Min_cycle;Max_cycle;Signal;HPM_P1;HPM_P2
2022/01/12 00:00:25;;;;;;;32.78;22.52;;;3.20;99.90;;;;;;5054393;28;20648;-66
2022/01/12 00:02:52;;;;;;;34.10;21.48;;;3.20;99.90;;;;;;5054547;28;20246;-64
2022/01/12 00:05:20;;;;;;;34.72;21.17;;;3.20;99.90;;;;;;5054053;28;20231;-64
2022/01/12 00:07:50;;;;;;;34.55;22.27;;;3.20;99.90;;;;;;5054596;28;20227;-64
2022/01/12 00:10:18;;;;;;;30.60;22.52;;;3.20;99.90;;;;;;5045922;28;20264;-65
2022/01/12 00:12:44;;;;;;;35.25;23.13;;;3.20;99.90;;;;;;5048286;28;20227;-65
2022/01/12 00:15:14;;;;;;;31.88;21.02;;;3.20;99.90;;;;;;5054096;28;20225;-66
2022/01/12 00:17:41;;;;;;;37.00;23.45;;;3.20;99.90;;;;;;5054182;28;20235;-65
2022/01/12 00:20:09;;;;;;;31.98;22.02;;;3.20;99.90;;;;;;5053855;28;20693;-65
2022/01/12 00:22:37;;;;;;;35.25;23.75;;;3.10;99.90;;;;;;5054111;28;20233;-64
2022/01/12 00:25:23;;;;;;;34.85;21.10;;;3.10;99.90;;;;;;5051382;28;20237;-65
2022/01/12 00:33:21;;;;;;;33.67;21.50;;;3.00;99.90;;;;;;5053506;28;20240;-65
2022/01/12 00:35:50;;;;;;;35.25;22.48;;;3.00;99.90;;;;;;5053986;28;20304;-65
2022/01/12 00:38:18;;;;;;;33.92;22.25;;;3.00;99.90;;;;;;5053360;28;20229;-65
2022/01/12 00:40:48;;;;;;;36.17;21.98;;;3.00;99.90;;;;;;5053739;28;20313;-65
2022/01/12 00:43:16;;;;;;;37.72;23.00;;;3.00;99.90;;;;;;5053344;28;20257;-65
2022/01/12 00:45:45;;;;;;;35.28;22.67;;;3.00;99.90;;;;;;5053950;28;20291;-65
2022/01/12 00:48:12;;;;;;;37.50;22.83;;;3.00;99.90;;;;;;5053302;28;20228;-64
2022/01/12 00:50:39;;;;;;;35.13;23.35;;;3.00;99.90;;;;;;5053122;28;20229;-64
2022/01/12 00:53:06;;;;;;;40.90;24.58;;;3.10;99.90;;;;;;5053518;28;20592;-64
2022/01/12 00:55:34;;;;;;;39.38;22.55;;;3.00;99.90;;;;;;5053206;28;20221;-64
2022/01/12 00:58:01;;;;;;;43.25;26.08;;;3.00;99.90;;;;;;5053268;28;20229;-64
2022/01/12 01:00:29;;;;;;;44.55;26.33;;;3.00;99.90;;;;;;5053018;28;20235;-64
2022/01/12 01:02:58;;;;;;;43.63;26.95;;;3.10;99.90;;;;;;5053267;28;20234;-64
2022/01/12 01:05:26;;;;;;;38.00;24.25;;;3.10;99.90;;;;;;5053024;28;20222;-65
2022/01/12 01:07:54;;;;;;;35.85;23.50;;;3.10;99.90;;;;;;5053415;28;20680;-64
2022/01/12 01:10:30;;;;;;;38.33;24.45;;;3.10;99.90;;;;;;5043896;28;20236;-64
2022/01/12 01:12:59;;;;;;;36.25;23.25;;;3.10;99.90;;;;;;5044325;28;20247;-65
2022/01/12 01:15:42;;;;;;;39.80;23.27;;;3.10;99.90;;;;;;5052683;28;20237;-65
2022/01/12 01:26:22;;;;;;;32.63;23.00;;;3.30;99.90;;;;;;5052890;28;20255;-65
2022/01/12 01:28:49;;;;;;;33.90;23.13;;;3.30;99.90;;;;;;5052946;28;20220;-65
2022/01/12 01:31:16;;;;;;;34.25;20.42;;;3.30;99.90;;;;;;5052344;28;20697;-65
2022/01/12 01:33:44;;;;;;;37.15;23.70;;;3.30;99.90;;;;;;5052838;28;20234;-65
2022/01/12 01:36:11;;;;;;;33.88;21.73;;;3.30;99.90;;;;;;5052527;28;20301;-65
2022/01/12 01:38:38;;;;;;;35.28;22.20;;;3.30;99.90;;;;;;5052510;28;20218;-65
2022/01/12 01:41:05;;;;;;;36.00;21.80;;;3.30;99.90;;;;;;5052508;28;20244;-65
2022/01/12 01:43:44;;;;;;;34.88;21.05;;;3.30;99.90;;;;;;5052694;28;20697;-65
2022/01/12 01:54:25;;;;;;;33.17;19.85;;;3.20;99.90;;;;;;5052569;28;20236;-65
2022/01/12 01:56:52;;;;;;;30.52;22.60;;;3.30;99.90;;;;;;5052480;28;20588;-65
2022/01/12 01:59:19;;;;;;;30.08;20.13;;;3.30;99.90;;;;;;5052541;28;20222;-65
2022/01/12 02:01:46;;;;;;;30.45;17.00;;;3.20;99.90;;;;;;5052082;28;20223;-66
2022/01/12 02:04:14;;;;;;;34.17;19.50;;;3.20;99.90;;;;;;5052464;28;20227;-65
2022/01/12 02:06:42;;;;;;;25.10;18.15;;;3.20;99.90;;;;;;5052275;28;20229;-65
2022/01/12 02:09:08;;;;;;;28.77;18.38;;;3.20;99.90;;;;;;5052400;28;20236;-65
2022/01/12 02:11:35;;;;;;;27.67;18.95;;;3.20;99.90;;;;;;5042569;28;20231;-65
2022/01/12 02:14:02;;;;;;;33.05;19.67;;;3.20;99.90;;;;;;5047929;28;20224;-65
2022/01/12 02:16:35;;;;;;;35.95;19.48;;;3.30;99.90;;;;;;5056044;28;20230;-65
2022/01/12 02:19:16;;;;;;;34.30;19.70;;;3.30;99.90;;;;;;5053209;28;20315;-65
2022/01/12 02:35:45;;;;;;;33.40;19.77;;;3.30;99.90;;;;;;5056728;28;20251;-64
2022/01/12 02:40:57;;;;;;;34.38;18.92;;;3.30;99.90;;;;;;5056091;28;20244;-65
2022/01/12 02:43:41;;;;;;;35.63;19.48;;;3.30;99.90;;;;;;5051187;28;20227;-65
2022/01/12 02:53:38;;;;;;;41.47;20.05;;;3.20;99.90;;;;;;5055985;28;20647;-65
2022/01/12 02:54:23;;;;;;;35.33;20.70;;;3.20;99.90;;;;;;5056003;28;20228;-65
2022/01/12 02:56:50;;;;;;;32.28;19.13;;;3.30;99.90;;;;;;5055550;28;20534;-65
2022/01/12 02:59:16;;;;;;;33.53;19.65;;;3.30;99.90;;;;;;5055719;28;20228;-65
2022/01/12 03:02:12;;;;;;;33.70;19.40;;;3.20;99.90;;;;;;5055330;28;20672;-64
2022/01/12 03:04:49;;;;;;;34.30;18.90;;;3.30;99.90;;;;;;5045707;28;20220;-65
2022/01/12 03:07:20;;;;;;;33.22;19.35;;;3.30;99.90;;;;;;5055679;28;20274;-64
2022/01/12 03:09:48;;;;;;;38.55;20.77;;;3.30;99.90;;;;;;5051088;28;20231;-64
2022/01/12 03:12:15;;;;;;;36.13;19.05;;;3.40;99.90;;;;;;5049494;28;20223;-64
2022/01/12 03:14:42;;;;;;;29.17;18.35;;;3.40;99.90;;;;;;5048298;28;20598;-64
2022/01/12 03:17:11;;;;;;;33.67;18.23;;;3.40;99.90;;;;;;5055378;28;20221;-64
2022/01/12 03:19:38;;;;;;;31.30;18.58;;;3.40;99.90;;;;;;5054884;28;20792;-64
2022/01/12 03:22:05;;;;;;;34.28;18.13;;;3.40;99.90;;;;;;5042277;28;20227;-64
2022/01/12 03:24:32;;;;;;;35.08;19.23;;;3.40;99.90;;;;;;5055288;28;20229;-65
2022/01/12 03:27:00;;;;;;;32.70;19.23;;;3.40;99.90;;;;;;5054803;28;20227;-65
2022/01/12 03:29:27;;;;;;;32.50;19.30;;;3.40;99.90;;;;;;5055332;28;20226;-64
2022/01/12 03:31:56;;;;;;;32.25;18.45;;;3.50;99.90;;;;;;5062021;28;20676;-65
2022/01/12 03:34:26;;;;;;;34.97;19.38;;;3.50;99.90;;;;;;5054871;28;20275;-64
2022/01/12 03:37:17;;;;;;;32.60;21.05;;;3.60;99.90;;;;;;5054827;28;20226;-64
2022/01/12 03:39:44;;;;;;;33.97;19.95;;;3.50;99.90;;;;;;5054511;28;20225;-65
2022/01/12 03:42:13;;;;;;;34.38;19.95;;;3.60;99.90;;;;;;5055242;28;20226;-65
2022/01/12 03:44:40;;;;;;;39.72;22.42;;;3.70;99.90;;;;;;5054469;28;20266;-65
2022/01/12 03:47:07;;;;;;;25.80;17.30;;;3.60;99.90;;;;;;5055026;28;20222;-65
2022/01/12 03:49:33;;;;;;;38.83;21.42;;;3.70;99.90;;;;;;5052447;28;20574;-65
2022/01/12 03:52:00;;;;;;;29.90;17.85;;;3.70;99.90;;;;;;5054386;28;20235;-65
2022/01/12 03:54:27;;;;;;;41.67;20.80;;;3.70;99.90;;;;;;5054915;28;20568;-64
2022/01/12 03:56:54;;;;;;;32.85;19.25;;;3.70;99.90;;;;;;5054263;28;20226;-65
2022/01/12 03:59:22;;;;;;;37.97;20.80;;;3.70;99.90;;;;;;5054769;28;20280;-65
2022/01/12 04:01:49;;;;;;;39.28;20.70;;;3.70;99.90;;;;;;5054327;28;20226;-65
2022/01/12 04:04:22;;;;;;;37.80;20.15;;;3.80;99.90;;;;;;5054671;28;20228;-65
2022/01/12 04:09:33;;;;;;;31.63;19.27;;;3.70;99.90;;;;;;5039878;28;20228;-64
2022/01/12 04:12:00;;;;;;;35.30;20.90;;;3.70;99.90;;;;;;5044944;28;20219;-65
2022/01/12 04:14:28;;;;;;;42.85;21.30;;;3.70;99.90;;;;;;5032924;28;20234;-65
2022/01/12 04:16:55;;;;;;;32.35;18.90;;;3.70;99.90;;;;;;5032389;28;20280;-65
2022/01/12 04:19:23;;;;;;;35.35;18.95;;;3.70;99.90;;;;;;5039099;28;20228;-65
2022/01/12 04:21:50;;;;;;;34.85;21.40;;;3.70;99.90;;;;;;5053833;28;20229;-65
2022/01/12 04:24:18;;;;;;;37.33;21.58;;;3.80;99.90;;;;;;5054415;28;20225;-65
2022/01/12 04:26:45;;;;;;;39.15;22.48;;;3.80;99.90;;;;;;5053927;28;20703;-64
2022/01/12 04:29:13;;;;;;;39.90;21.33;;;3.80;99.90;;;;;;5054504;28;20216;-65
2022/01/12 04:31:42;;;;;;;37.00;20.92;;;3.80;99.90;;;;;;5053831;28;20262;-64
2022/01/12 04:34:09;;;;;;;37.00;19.77;;;3.70;99.90;;;;;;5053924;28;20225;-65
2022/01/12 04:36:36;;;;;;;38.47;18.95;;;3.70;99.90;;;;;;5054331;28;20222;-64
2022/01/12 04:39:05;;;;;;;41.83;22.35;;;3.70;99.90;;;;;;5053211;28;20225;-65
2022/01/12 04:41:32;;;;;;;38.50;21.20;;;3.70;99.90;;;;;;5054143;28;20232;-65
2022/01/12 04:44:01;;;;;;;39.45;23.10;;;3.70;99.90;;;;;;5053235;28;20232;-65
2022/01/12 04:46:36;;;;;;;36.50;20.30;;;3.70;99.90;;;;;;5054041;28;20686;-65
2022/01/12 04:52:03;;;;;;;34.10;19.98;;;3.60;99.90;;;;;;5031563;28;20260;-65
2022/01/12 04:54:30;;;;;;;35.63;19.00;;;3.60;99.90;;;;;;5031999;28;20222;-65
2022/01/12 04:56:57;;;;;;;33.58;18.02;;;3.60;99.90;;;;;;5040979;28;20225;-64
2022/01/12 04:59:25;;;;;;;33.20;17.95;;;3.60;99.90;;;;;;5053717;28;20682;-65
2022/01/12 05:01:57;;;;;;;38.50;20.33;;;3.60;99.90;;;;;;5053440;28;20278;-65
2022/01/12 05:07:24;;;;;;;35.72;19.73;;;3.70;99.90;;;;;;5053204;28;21355;-65
2022/01/12 05:12:46;;;;;;;31.95;19.13;;;3.80;99.90;;;;;;5053009;28;20230;-65
2022/01/12 05:12:53;;;;;;;35.33;18.92;;;3.80;99.90;;;;;;5033544;28;20277;-65
2022/01/12 05:15:27;;;;;;;36.00;19.55;;;3.80;99.90;;;;;;5053475;28;20222;-65
2022/01/12 05:17:55;;;;;;;31.63;17.85;;;3.80;99.90;;;;;;5052948;28;20244;-65
2022/01/12 05:20:24;;;;;;;34.30;19.73;;;3.80;99.90;;;;;;5053011;28;20226;-65
2022/01/12 05:22:51;;;;;;;34.47;19.92;;;3.80;99.90;;;;;;5036269;28;20230;-65
2022/01/12 05:25:18;;;;;;;32.33;18.20;;;3.90;99.90;;;;;;5043027;28;20228;-63
2022/01/12 05:27:46;;;;;;;33.95;20.45;;;3.90;99.90;;;;;;5053294;28;20218;-63
2022/01/12 05:30:14;;;;;;;35.25;19.92;;;3.90;99.90;;;;;;5052907;28;20287;-64
2022/01/12 05:32:42;;;;;;;33.70;19.60;;;3.90;99.90;;;;;;5053408;28;20226;-65
2022/01/12 05:35:11;;;;;;;34.30;19.85;;;3.90;99.90;;;;;;5052481;28;20603;-64
2022/01/12 05:37:40;;;;;;;34.50;19.80;;;3.90;99.90;;;;;;5053183;28;20225;-64
2022/01/12 05:40:08;;;;;;;33.10;20.13;;;4.00;99.90;;;;;;5052486;28;20226;-64
2022/01/12 05:42:35;;;;;;;30.83;18.52;;;3.90;99.90;;;;;;5053061;28;20226;-63
2022/01/12 05:45:02;;;;;;;34.25;18.90;;;4.00;99.90;;;;;;5052527;28;20229;-63
2022/01/12 05:49:33;;;;;;;29.23;17.92;;;4.00;99.90;;;;;;5053134;28;20230;-64
2022/01/12 05:50:25;;;;;;;32.50;17.17;;;4.00;99.90;;;;;;5052299;28;20733;-64
2022/01/12 05:52:54;;;;;;;33.42;18.45;;;3.90;99.90;;;;;;5052487;28;20260;-64
2022/01/12 05:55:21;;;;;;;31.55;18.35;;;3.90;99.90;;;;;;5052707;28;20226;-64
2022/01/12 05:57:48;;;;;;;33.42;19.58;;;3.90;99.90;;;;;;5052325;28;20231;-64
2022/01/12 06:00:18;;;;;;;31.95;19.65;;;3.80;99.90;;;;;;5052814;28;20225;-64
2022/01/12 06:02:44;;;;;;;38.80;19.67;;;3.90;99.90;;;;;;5052198;28;20599;-64
2022/01/12 06:05:14;;;;;;;30.63;17.27;;;3.90;99.90;;;;;;5052605;28;20235;-64
2022/01/12 06:07:41;;;;;;;33.70;18.70;;;3.90;99.90;;;;;;5052280;28;20220;-64
2022/01/12 06:10:10;;;;;;;37.40;21.75;;;3.90;99.90;;;;;;5052559;28;20222;-65
2022/01/12 06:12:36;;;;;;;35.22;20.75;;;4.00;99.90;;;;;;5052267;28;20224;-65
2022/01/12 06:15:04;;;;;;;29.20;18.17;;;4.00;99.90;;;;;;5052700;28;20221;-65
2022/01/12 06:17:30;;;;;;;31.55;19.60;;;3.90;99.90;;;;;;5052467;28;20228;-65
2022/01/12 06:19:57;;;;;;;26.92;17.00;;;3.90;99.90;;;;;;5052172;28;20217;-65
2022/01/12 06:22:24;;;;;;;36.70;20.25;;;3.90;99.90;;;;;;5052339;28;20228;-65
2022/01/12 06:24:51;;;;;;;33.42;19.80;;;3.90;99.90;;;;;;5052054;28;20230;-65
2022/01/12 06:27:21;;;;;;;30.52;20.58;;;3.90;99.90;;;;;;5052632;28;20222;-65
2022/01/12 06:30:02;;;;;;;34.05;20.55;;;3.90;99.90;;;;;;5052171;28;20683;-65
2022/01/12 06:32:29;;;;;;;32.70;20.27;;;3.90;99.90;;;;;;5052491;28;20274;-65
2022/01/12 06:34:56;;;;;;;29.83;15.95;;;4.00;99.90;;;;;;5051740;28;20777;-65
2022/01/12 06:37:23;;;;;;;32.78;18.75;;;4.00;99.90;;;;;;5052334;28;20295;-64
2022/01/12 06:39:50;;;;;;;24.88;16.45;;;4.00;99.90;;;;;;5051659;28;20226;-65
2022/01/12 06:42:17;;;;;;;29.17;17.42;;;4.00;99.90;;;;;;5052475;28;20219;-65
2022/01/12 06:44:47;;;;;;;32.33;19.02;;;4.00;99.90;;;;;;5052020;28;20671;-65
2022/01/12 06:47:13;;;;;;;31.83;17.67;;;4.10;99.90;;;;;;5052209;28;20218;-65
2022/01/12 06:49:40;;;;;;;33.15;18.73;;;4.10;99.90;;;;;;5051774;28;20227;-64
2022/01/12 06:52:08;;;;;;;31.98;18.70;;;4.10;99.90;;;;;;5052394;28;20236;-65
2022/01/12 06:54:34;;;;;;;32.08;17.83;;;4.10;99.90;;;;;;5051732;28;20463;-65
2022/01/12 06:57:01;;;;;;;29.75;17.63;;;4.10;99.90;;;;;;5051896;28;20986;-65
2022/01/12 06:59:28;;;;;;;33.33;18.83;;;4.10;99.90;;;;;;5052202;28;20221;-65
2022/01/12 07:01:56;;;;;;;30.08;17.60;;;4.10;99.90;;;;;;5053905;28;20565;-65
2022/01/12 07:04:24;;;;;;;34.15;19.10;;;4.10;99.90;;;;;;5056190;28;20591;-65
2022/01/12 07:06:51;;;;;;;33.70;18.50;;;4.10;99.90;;;;;;5055493;28;20245;-64
2022/01/12 07:09:18;;;;;;;37.80;21.67;;;4.10;99.90;;;;;;5055809;28;20676;-64
2022/01/12 07:11:47;;;;;;;29.98;17.30;;;4.10;99.90;;;;;;5055253;28;20236;-64
2022/01/12 07:14:14;;;;;;;33.13;18.13;;;4.00;99.90;;;;;;5055888;28;20236;-65
2022/01/12 07:16:40;;;;;;;31.60;18.83;;;4.10;99.90;;;;;;5055362;28;20710;-64
2022/01/12 07:19:09;;;;;;;30.20;17.92;;;4.10;99.90;;;;;;5055733;28;20221;-65
2022/01/12 07:21:36;;;;;;;31.50;19.27;;;4.10;99.90;;;;;;5055310;28;20213;-64
2022/01/12 07:24:03;;;;;;;35.35;18.58;;;4.10;99.90;;;;;;5054869;28;20231;-65
2022/01/12 07:26:30;;;;;;;30.50;17.92;;;4.10;99.90;;;;;;5055648;28;20245;-65
2022/01/12 07:28:56;;;;;;;34.88;19.70;;;4.10;99.90;;;;;;5055031;28;20217;-65
2022/01/12 07:31:23;;;;;;;34.95;18.70;;;4.10;99.90;;;;;;5055438;28;20232;-65
2022/01/12 07:33:51;;;;;;;33.88;21.67;;;4.10;99.90;;;;;;5055100;28;20252;-65
2022/01/12 07:36:19;;;;;;;40.70;21.92;;;4.20;99.90;;;;;;5055208;28;20229;-65
2022/01/12 07:38:48;;;;;;;32.17;18.48;;;4.20;99.90;;;;;;5054691;28;20215;-64
2022/01/12 07:41:14;;;;;;;28.52;18.30;;;4.30;99.90;;;;;;5055161;28;20225;-65
2022/01/12 07:43:41;;;;;;;31.60;21.15;;;4.30;99.90;;;;;;5054846;28;20226;-65
2022/01/12 07:46:08;;;;;;;35.60;20.67;;;4.30;99.90;;;;;;5055181;28;20223;-65
2022/01/12 07:48:35;;;;;;;39.17;20.38;;;4.40;99.90;;;;;;5055214;28;20226;-65
2022/01/12 07:51:02;;;;;;;33.80;18.90;;;4.40;99.90;;;;;;5054394;28;20242;-65
2022/01/12 07:53:30;;;;;;;36.13;19.42;;;4.40;99.90;;;;;;5054972;28;20571;-65
2022/01/12 07:55:57;;;;;;;33.72;18.92;;;4.50;99.90;;;;;;5054639;28;20250;-65
2022/01/12 07:58:24;;;;;;;32.20;18.15;;;4.50;99.90;;;;;;5054872;28;20220;-64
2022/01/12 08:00:51;;;;;;;38.83;20.40;;;4.50;99.90;;;;;;5053413;28;20229;-64
2022/01/12 08:03:20;;;;;;;37.00;19.77;;;4.50;99.90;;;;;;5035038;28;20219;-65
2022/01/12 08:05:47;;;;;;;31.25;18.23;;;4.50;99.90;;;;;;5034294;28;20244;-65
2022/01/12 08:08:15;;;;;;;36.60;18.95;;;4.50;99.90;;;;;;5034820;28;20222;-65
2022/01/12 08:10:43;;;;;;;35.05;21.02;;;4.50;99.90;;;;;;5042013;28;20215;-65
2022/01/12 08:13:10;;;;;;;39.85;19.08;;;4.50;99.90;;;;;;5053809;28;20229;-65
2022/01/12 08:15:37;;;;;;;34.38;18.77;;;4.60;99.90;;;;;;5054471;28;20233;-65
2022/01/12 08:18:05;;;;;;;36.47;20.80;;;4.60;99.90;;;;;;5054167;28;20230;-65
2022/01/12 08:20:31;;;;;;;34.88;18.10;;;4.60;99.90;;;;;;5054177;28;20225;-65
2022/01/12 08:22:58;;;;;;;37.58;19.92;;;4.70;99.90;;;;;;5053855;28;20305;-65
2022/01/12 08:25:26;;;;;;;37.22;18.08;;;4.70;99.90;;;;;;5054325;28;20228;-64
2022/01/12 08:27:54;;;;;;;31.05;18.05;;;4.80;99.90;;;;;;5054080;28;20302;-65
2022/01/12 08:30:28;;;;;;;33.00;19.60;;;4.90;99.90;;;;;;5054227;28;20233;-64
2022/01/12 08:32:55;;;;;;;35.50;20.17;;;4.90;99.90;;;;;;5053569;28;20308;-65
2022/01/12 08:35:22;;;;;;;37.95;24.92;;;4.90;99.90;;;;;;5054289;28;20223;-65
2022/01/12 08:37:49;;;;;;;38.30;20.95;;;5.00;99.90;;;;;;5053642;28;20221;-65
2022/01/12 08:40:18;;;;;;;39.08;22.05;;;4.90;99.90;;;;;;5054163;28;20301;-65
2022/01/12 08:42:46;;;;;;;39.60;18.38;;;5.00;99.90;;;;;;5053830;28;20221;-65
2022/01/12 08:45:15;;;;;;;39.10;20.95;;;5.10;99.90;;;;;;5054057;28;20222;-65
2022/01/12 08:47:42;;;;;;;35.55;19.27;;;5.10;99.90;;;;;;5053933;28;20234;-65
2022/01/12 08:50:10;;;;;;;37.50;19.48;;;5.20;99.90;;;;;;5053746;28;20970;-65
2022/01/12 08:52:39;;;;;;;41.08;19.60;;;5.20;99.90;;;;;;5053887;28;20233;-65
2022/01/12 08:55:06;;;;;;;34.88;19.65;;;5.20;99.90;;;;;;5053396;28;20222;-64
2022/01/12 08:57:33;;;;;;;32.55;19.55;;;5.30;99.90;;;;;;5053682;28;20682;-65
2022/01/12 09:00:01;;;;;;;39.58;21.80;;;5.40;99.90;;;;;;5053309;28;20230;-65
2022/01/12 09:02:29;;;;;;;38.72;20.98;;;5.50;99.90;;;;;;5053553;28;20223;-65
2022/01/12 09:04:56;;;;;;;40.58;22.02;;;5.50;99.90;;;;;;5053189;28;20223;-65
2022/01/12 09:07:23;;;;;;;38.10;22.42;;;5.60;99.90;;;;;;5053523;28;20221;-64
2022/01/12 09:09:50;;;;;;;43.50;23.25;;;5.60;99.90;;;;;;5052176;28;20702;-65
2022/01/12 09:12:17;;;;;;;37.40;23.90;;;5.60;99.90;;;;;;5033703;28;20226;-65
2022/01/12 09:14:45;;;;;;;46.90;23.17;;;5.60;99.90;;;;;;5033411;28;20220;-65
2022/01/12 09:17:17;;;;;;;36.38;22.35;;;5.70;99.90;;;;;;5033219;28;20229;-64
2022/01/12 09:19:46;;;;;;;38.83;21.10;;;5.70;99.90;;;;;;5040854;28;20233;-65
2022/01/12 09:22:13;;;;;;;42.50;22.17;;;5.70;99.90;;;;;;5052779;28;20232;-64
2022/01/12 09:24:42;;;;;;;35.25;19.85;;;5.80;99.90;;;;;;5053039;28;20234;-64
2022/01/12 09:27:09;;;;;;;39.47;21.75;;;5.80;99.90;;;;;;5052724;28;22392;-65
2022/01/12 09:29:36;;;;;;;33.15;20.48;;;5.80;99.90;;;;;;5053330;28;20306;-66
2022/01/12 09:32:03;;;;;;;36.10;19.27;;;5.80;99.90;;;;;;5052458;28;20230;-65
2022/01/12 09:34:30;;;;;;;33.45;19.88;;;5.80;99.90;;;;;;5052785;28;20222;-64
2022/01/12 09:36:58;;;;;;;35.88;22.70;;;5.80;99.90;;;;;;5052619;28;20230;-64
2022/01/12 09:39:25;;;;;;;33.72;20.05;;;5.80;99.90;;;;;;5045333;28;20230;-64
2022/01/12 09:41:52;;;;;;;30.83;19.75;;;5.90;99.90;;;;;;5032432;28;20720;-64
2022/01/12 09:44:19;;;;;;;36.35;20.83;;;5.90;99.90;;;;;;5033223;28;20225;-64
2022/01/12 09:46:45;;;;;;;33.42;18.52;;;5.90;99.90;;;;;;5033126;28;20677;-64
2022/01/12 09:49:13;;;;;;;34.10;20.85;;;5.90;99.90;;;;;;5032518;28;20239;-64
2022/01/12 09:51:40;;;;;;;31.20;19.90;;;6.00;99.90;;;;;;5032942;28;20238;-64
2022/01/12 09:54:09;;;;;;;38.33;21.63;;;6.00;99.90;;;;;;5032449;28;20223;-64
2022/01/12 09:56:36;;;;;;;36.78;22.95;;;6.00;99.90;;;;;;5032977;28;20222;-64
2022/01/12 09:59:03;;;;;;;39.28;22.33;;;6.10;99.90;;;;;;5032632;28;20239;-65
2022/01/12 10:01:33;;;;;;;41.10;24.52;;;6.10;99.90;;;;;;5032703;28;20231;-64
2022/01/12 10:04:07;;;;;;;33.85;19.77;;;6.10;99.90;;;;;;5032619;28;20250;-64
2022/01/12 10:06:37;;;;;;;35.33;20.33;;;6.10;99.90;;;;;;5033104;28;20232;-64
2022/01/12 10:09:04;;;;;;;36.53;22.45;;;6.10;99.90;;;;;;5032225;28;20245;-64
2022/01/12 10:11:32;;;;;;;37.25;23.38;;;6.10;99.90;;;;;;5047235;28;20672;-64
2022/01/12 10:14:01;;;;;;;42.10;20.77;;;6.20;99.90;;;;;;5047241;28;20223;-64
2022/01/12 10:16:29;;;;;;;41.92;20.50;;;6.20;99.90;;;;;;5032793;28;20247;-64
2022/01/12 10:18:58;;;;;;;32.67;20.75;;;6.30;99.90;;;;;;5032265;28;20237;-64
2022/01/12 10:21:34;;;;;;;33.75;20.35;;;6.30;99.90;;;;;;5032649;28;20227;-64
2022/01/12 10:24:05;;;;;;;36.33;21.13;;;6.30;99.90;;;;;;5032136;28;20711;-64
2022/01/12 10:26:39;;;;;;;26.88;17.95;;;6.40;99.90;;;;;;5032719;28;20332;-65
2022/01/12 10:29:10;;;;;;;36.42;20.88;;;6.40;99.90;;;;;;5032194;28;20222;-65
2022/01/12 10:31:44;;;;;;;28.88;18.38;;;6.40;99.90;;;;;;5032486;28;20239;-65
2022/01/12 10:34:11;;;;;;;29.55;20.25;;;6.40;99.90;;;;;;5032000;28;20238;-65
2022/01/12 10:36:39;;;;;;;33.55;19.63;;;6.50;99.90;;;;;;5034348;28;20227;-65
2022/01/12 10:39:06;;;;;;;28.02;18.70;;;6.50;99.90;;;;;;5035934;28;20242;-65
2022/01/12 10:41:33;;;;;;;30.73;17.70;;;6.50;99.90;;;;;;5036362;28;20224;-65
2022/01/12 10:44:02;;;;;;;28.73;15.55;;;6.50;99.90;;;;;;5035995;28;20223;-64
2022/01/12 10:46:30;;;;;;;29.38;18.20;;;6.50;99.90;;;;;;5036446;28;20228;-65
2022/01/12 10:48:58;;;;;;;34.67;17.83;;;6.60;99.90;;;;;;5035994;28;20223;-65
2022/01/12 10:51:27;;;;;;;28.85;16.52;;;6.60;99.90;;;;;;5036139;28;20246;-65
2022/01/12 10:54:00;;;;;;;31.33;19.05;;;6.60;99.90;;;;;;5036160;28;20728;-65
2022/01/12 10:56:27;;;;;;;26.90;16.67;;;6.70;99.90;;;;;;5035797;28;20223;-65
2022/01/12 10:58:56;;;;;;;32.92;16.70;;;6.70;99.90;;;;;;5036131;28;20224;-65
2022/01/12 11:01:29;;;;;;;26.25;18.10;;;6.70;99.90;;;;;;5035555;28;20236;-65
2022/01/12 11:03:56;;;;;;;29.83;17.02;;;6.70;99.90;;;;;;5036136;28;20678;-65
2022/01/12 11:06:25;;;;;;;25.85;15.60;;;6.70;99.90;;;;;;5035621;28;20235;-65
2022/01/12 11:08:57;;;;;;;29.45;20.27;;;6.70;99.90;;;;;;5036015;28;20255;-65
2022/01/12 11:11:25;;;;;;;26.20;15.82;;;6.80;99.90;;;;;;5035476;28;20254;-65
2022/01/12 11:13:52;;;;;;;27.92;15.27;;;6.80;99.90;;;;;;5035954;28;20240;-65
2022/01/12 11:16:21;;;;;;;25.25;16.15;;;6.80;99.90;;;;;;5035360;28;20701;-65
2022/01/12 11:18:52;;;;;;;24.58;16.42;;;6.80;99.90;;;;;;5035765;28;20244;-65
2022/01/12 11:21:25;;;;;;;27.80;16.83;;;6.80;99.90;;;;;;5035193;28;20228;-65
2022/01/12 11:23:57;;;;;;;27.10;16.23;;;6.80;99.90;;;;;;5035653;28;20235;-64
2022/01/12 11:26:26;;;;;;;28.50;17.88;;;6.80;99.90;;;;;;5035348;28;22365;-64
2022/01/12 11:28:55;;;;;;;34.85;20.30;;;6.90;99.90;;;;;;5035593;28;20633;-64
2022/01/12 11:31:27;;;;;;;25.15;17.23;;;6.90;99.90;;;;;;5035232;28;20242;-65
2022/01/12 11:33:55;;;;;;;29.98;19.73;;;6.90;99.90;;;;;;5035173;28;20238;-64
2022/01/12 11:36:24;;;;;;;34.10;18.60;;;6.90;99.90;;;;;;5035041;28;20686;-66
2022/01/12 11:38:58;;;;;;;29.13;16.98;;;6.90;99.90;;;;;;5035293;28;20250;-65
2022/01/12 11:41:28;;;;;;;31.38;18.10;;;6.90;99.90;;;;;;5034744;28;20231;-65
2022/01/12 11:43:59;;;;;;;28.30;16.95;;;6.90;99.90;;;;;;5035281;28;20224;-64
2022/01/12 11:46:28;;;;;;;36.45;20.60;;;6.90;99.90;;;;;;5034883;28;20229;-65
2022/01/12 11:48:58;;;;;;;39.75;21.02;;;7.00;99.90;;;;;;5033813;28;20697;-65
2022/01/12 11:51:35;;;;;;;34.58;20.77;;;7.00;99.90;;;;;;5034775;28;20226;-63
2022/01/12 11:54:08;;;;;;;31.35;20.77;;;7.00;99.90;;;;;;5035176;28;20237;-65
2022/01/12 11:56:35;;;;;;;33.28;19.65;;;7.00;99.90;;;;;;5034946;28;20699;-63
2022/01/12 11:59:08;;;;;;;29.55;20.38;;;7.00;99.90;;;;;;5035114;28;20241;-64
2022/01/12 12:01:41;;;;;;;38.20;20.13;;;7.00;99.90;;;;;;5034307;28;20238;-64
2022/01/12 12:04:09;;;;;;;32.75;19.25;;;7.00;99.90;;;;;;5035114;28;20238;-64
2022/01/12 12:06:37;;;;;;;39.63;19.75;;;7.00;99.90;;;;;;5034569;28;20220;-64
2022/01/12 12:09:07;;;;;;;34.58;20.98;;;7.00;99.90;;;;;;5034830;28;20238;-64
2022/01/12 12:11:34;;;;;;;32.40;19.70;;;7.00;99.90;;;;;;5034430;28;20586;-64
2022/01/12 12:14:06;;;;;;;37.35;21.27;;;7.00;99.90;;;;;;5034917;28;20233;-64
2022/01/12 12:16:34;;;;;;;37.55;21.00;;;7.00;99.90;;;;;;5034236;28;20233;-65
2022/01/12 12:19:04;;;;;;;30.80;18.95;;;6.90;99.90;;;;;;5034907;28;20224;-65
2022/01/12 12:21:32;;;;;;;34.95;20.58;;;7.00;99.90;;;;;;5051040;28;20237;-65
2022/01/12 12:24:11;;;;;;;36.58;21.30;;;7.00;99.90;;;;;;5053506;28;20693;-65
2022/01/12 12:26:45;;;;;;;33.30;21.10;;;7.00;99.90;;;;;;5045031;28;20681;-65
2022/01/12 12:29:11;;;;;;;38.80;21.55;;;7.00;99.90;;;;;;5045826;28;20227;-65
2022/01/12 12:31:40;;;;;;;33.30;21.10;;;7.00;99.90;;;;;;5053117;28;20671;-65
2022/01/12 12:34:07;;;;;;;43.13;21.55;;;7.00;99.90;;;;;;5053253;28;20227;-65
2022/01/12 12:36:35;;;;;;;43.70;22.27;;;7.00;99.90;;;;;;5053772;28;25466;-64
2022/01/12 12:39:10;;;;;;;34.80;20.48;;;6.90;99.90;;;;;;5054203;28;20237;-64
2022/01/12 12:41:41;;;;;;;37.33;20.08;;;6.90;99.90;;;;;;5053520;28;20225;-64
2022/01/12 12:44:22;;;;;;;36.00;19.63;;;6.90;99.90;;;;;;5054213;28;20340;-64
2022/01/12 12:46:50;;;;;;;42.75;21.67;;;6.90;99.90;;;;;;5053947;28;21023;-64
2022/01/12 12:49:18;;;;;;;41.47;21.20;;;6.90;99.90;;;;;;5054044;28;20627;-64
2022/01/12 12:51:46;;;;;;;42.75;23.83;;;6.80;99.90;;;;;;5053374;28;20234;-65
2022/01/12 12:54:14;;;;;;;36.65;23.20;;;6.90;99.90;;;;;;5053993;28;20552;-64
2022/01/12 12:56:48;;;;;;;47.45;22.40;;;6.90;99.90;;;;;;5053510;28;20227;-65
2022/01/12 12:59:16;;;;;;;49.42;24.67;;;6.90;99.90;;;;;;5053385;28;20226;-65
2022/01/12 13:01:43;;;;;;;43.75;22.92;;;6.90;99.90;;;;;;5053261;28;20241;-65
2022/01/12 13:04:10;;;;;;;42.10;21.83;;;6.90;99.90;;;;;;5053749;28;20227;-66
2022/01/12 13:06:39;;;;;;;34.08;21.52;;;6.90;99.90;;;;;;5053210;28;20289;-65
2022/01/12 13:09:08;;;;;;;46.50;24.45;;;6.90;99.90;;;;;;5053758;28;20258;-65
2022/01/12 13:11:37;;;;;;;45.75;24.75;;;6.90;99.90;;;;;;5053124;28;20238;-65
2022/01/12 13:14:06;;;;;;;47.50;26.75;;;6.90;99.90;;;;;;5053523;28;20238;-65
2022/01/12 13:16:33;;;;;;;47.53;25.90;;;6.90;99.90;;;;;;5053182;28;20231;-66
2022/01/12 13:19:08;;;;;;;48.78;28.80;;;6.90;99.90;;;;;;5053400;28;20315;-65
2022/01/12 13:21:36;;;;;;;53.63;27.88;;;6.90;99.90;;;;;;5037457;28;20236;-65
2022/01/12 13:24:04;;;;;;;56.83;38.08;;;6.90;99.90;;;;;;5033567;28;20625;-65
2022/01/12 13:26:34;;;;;;;45.17;30.38;;;7.00;99.90;;;;;;5032847;28;20221;-65
2022/01/12 13:29:07;;;;;;;47.30;29.85;;;6.90;99.90;;;;;;5033631;28;20227;-66
2022/01/12 13:31:34;;;;;;;56.08;33.30;;;6.90;99.90;;;;;;5032754;28;20266;-64
2022/01/12 13:34:04;;;;;;;46.45;25.33;;;7.00;99.90;;;;;;5033385;28;20708;-64
2022/01/12 13:36:32;;;;;;;58.45;36.92;;;7.00;99.90;;;;;;5032810;28;20233;-65